sensor_id;sensor_type;location;lat;lon;timestamp;temperature;humidity
74968;SHT30;63523;51.880;12.630;2023-10-13T00:00:41;14.39;88.74
74968;SHT30;63523;51.880;12.630;2023-10-13T00:03:08;14.39;88.71
74968;SHT30;63523;51.880;12.630;2023-10-13T00:05:41;14.33;88.65
74968;SHT30;63523;51.880;12.630;2023-10-13T00:08:08;14.32;88.60
74968;SHT30;63523;51.880;12.630;2023-10-13T00:10:34;14.26;88.55
74968;SHT30;63523;51.880;12.630;2023-10-13T00:12:59;14.25;88.58
74968;SHT30;63523;51.880;12.630;2023-10-13T00:15:44;14.20;88.58
74968;SHT30;63523;51.880;12.630;2023-10-13T00:18:40;14.15;88.64
74968;SHT30;63523;51.880;12.630;2023-10-13T00:21:10;14.14;88.75
74968;SHT30;63523;51.880;12.630;2023-10-13T00:23:43;14.15;88.81
74968;SHT30;63523;51.880;12.630;2023-10-13T00:26:22;14.17;88.89
74968;SHT30;63523;51.880;12.630;2023-10-13T00:28:53;14.18;88.90
74968;SHT30;63523;51.880;12.630;2023-10-13T00:31:37;14.14;88.89
74968;SHT30;63523;51.880;12.630;2023-10-13T00:34:04;14.15;88.98
74968;SHT30;63523;51.880;12.630;2023-10-13T00:36:37;14.20;89.03
74968;SHT30;63523;51.880;12.630;2023-10-13T00:39:12;14.22;89.02
74968;SHT30;63523;51.880;12.630;2023-10-13T00:41:41;14.26;89.11
74968;SHT30;63523;51.880;12.630;2023-10-13T00:44:31;14.31;88.94
74968;SHT30;63523;51.880;12.630;2023-10-13T00:47:12;14.31;88.82
74968;SHT30;63523;51.880;12.630;2023-10-13T00:49:48;14.33;88.79
74968;SHT30;63523;51.880;12.630;2023-10-13T00:52:15;14.35;88.75
74968;SHT30;63523;51.880;12.630;2023-10-13T00:54:44;14.33;88.67
74968;SHT30;63523;51.880;12.630;2023-10-13T00:57:15;14.32;88.50
74968;SHT30;63523;51.880;12.630;2023-10-13T00:59:55;14.29;88.50
74968;SHT30;63523;51.880;12.630;2023-10-13T01:02:21;14.26;88.36
74968;SHT30;63523;51.880;12.630;2023-10-13T01:05:06;14.20;88.41
74968;SHT30;63523;51.880;12.630;2023-10-13T01:07:35;14.17;88.49
74968;SHT30;63523;51.880;12.630;2023-10-13T01:10:09;14.15;88.71
74968;SHT30;63523;51.880;12.630;2023-10-13T01:12:38;14.12;88.68
74968;SHT30;63523;51.880;12.630;2023-10-13T01:15:04;14.05;88.75
74968;SHT30;63523;51.880;12.630;2023-10-13T01:17:32;14.07;88.95
74968;SHT30;63523;51.880;12.630;2023-10-13T01:19:59;14.04;88.96
74968;SHT30;63523;51.880;12.630;2023-10-13T01:22:24;14.05;89.18
74968;SHT30;63523;51.880;12.630;2023-10-13T01:24:50;14.07;89.24
74968;SHT30;63523;51.880;12.630;2023-10-13T01:27:16;14.11;89.24
74968;SHT30;63523;51.880;12.630;2023-10-13T01:29:46;14.12;89.25
74968;SHT30;63523;51.880;12.630;2023-10-13T01:32:18;14.14;89.30
74968;SHT30;63523;51.880;12.630;2023-10-13T01:34:44;14.20;89.43
74968;SHT30;63523;51.880;12.630;2023-10-13T01:37:13;14.24;89.30
74968;SHT30;63523;51.880;12.630;2023-10-13T01:39:38;14.28;89.26
74968;SHT30;63523;51.880;12.630;2023-10-13T01:42:03;14.28;89.01
74968;SHT30;63523;51.880;12.630;2023-10-13T01:44:28;14.28;88.98
74968;SHT30;63523;51.880;12.630;2023-10-13T01:46:57;14.29;89.10
74968;SHT30;63523;51.880;12.630;2023-10-13T01:49:33;14.31;88.87
74968;SHT30;63523;51.880;12.630;2023-10-13T01:52:07;14.32;88.87
74968;SHT30;63523;51.880;12.630;2023-10-13T01:54:33;14.35;88.88
74968;SHT30;63523;51.880;12.630;2023-10-13T01:56:58;14.35;88.74
74968;SHT30;63523;51.880;12.630;2023-10-13T01:59:25;14.33;88.82
74968;SHT30;63523;51.880;12.630;2023-10-13T02:01:52;14.35;88.95
74968;SHT30;63523;51.880;12.630;2023-10-13T02:04:20;14.35;88.96
74968;SHT30;63523;51.880;12.630;2023-10-13T02:06:46;14.33;88.98
74968;SHT30;63523;51.880;12.630;2023-10-13T02:09:11;14.35;88.90
74968;SHT30;63523;51.880;12.630;2023-10-13T02:11:51;14.35;89.01
74968;SHT30;63523;51.880;12.630;2023-10-13T02:14:20;14.35;89.11
74968;SHT30;63523;51.880;12.630;2023-10-13T02:16:48;14.38;89.16
74968;SHT30;63523;51.880;12.630;2023-10-13T02:19:15;14.39;89.00
74968;SHT30;63523;51.880;12.630;2023-10-13T02:21:41;14.38;88.99
74968;SHT30;63523;51.880;12.630;2023-10-13T02:24:10;14.36;89.00
74968;SHT30;63523;51.880;12.630;2023-10-13T02:26:43;14.39;89.06
74968;SHT30;63523;51.880;12.630;2023-10-13T02:29:08;14.36;88.90
74968;SHT30;63523;51.880;12.630;2023-10-13T02:31:38;14.38;89.07
74968;SHT30;63523;51.880;12.630;2023-10-13T02:34:04;14.42;89.26
74968;SHT30;63523;51.880;12.630;2023-10-13T02:36:34;14.50;88.98
74968;SHT30;63523;51.880;12.630;2023-10-13T02:39:03;14.52;88.87
74968;SHT30;63523;51.880;12.630;2023-10-13T02:41:33;14.57;89.30
74968;SHT30;63523;51.880;12.630;2023-10-13T02:44:03;14.67;89.48
74968;SHT30;63523;51.880;12.630;2023-10-13T02:46:33;14.74;89.84
74968;SHT30;63523;51.880;12.630;2023-10-13T02:49:02;14.90;89.93
74968;SHT30;63523;51.880;12.630;2023-10-13T02:51:38;14.98;89.84
74968;SHT30;63523;51.880;12.630;2023-10-13T02:54:07;15.07;89.93
74968;SHT30;63523;51.880;12.630;2023-10-13T02:56:39;15.14;89.88
74968;SHT30;63523;51.880;12.630;2023-10-13T02:59:25;15.21;89.78
74968;SHT30;63523;51.880;12.630;2023-10-13T03:02:02;15.22;89.87
74968;SHT30;63523;51.880;12.630;2023-10-13T03:04:56;15.28;89.74
74968;SHT30;63523;51.880;12.630;2023-10-13T03:07:39;15.29;89.72
74968;SHT30;63523;51.880;12.630;2023-10-13T03:10:08;15.35;89.65
74968;SHT30;63523;51.880;12.630;2023-10-13T03:12:38;15.39;89.56
74968;SHT30;63523;51.880;12.630;2023-10-13T03:15:05;15.45;89.45
74968;SHT30;63523;51.880;12.630;2023-10-13T03:17:43;15.50;88.97
74968;SHT30;63523;51.880;12.630;2023-10-13T03:20:18;15.45;88.67
74968;SHT30;63523;51.880;12.630;2023-10-13T03:23:03;15.46;88.80
74968;SHT30;63523;51.880;12.630;2023-10-13T03:25:34;15.38;88.73
74968;SHT30;63523;51.880;12.630;2023-10-13T03:28:07;15.39;88.88
74968;SHT30;63523;51.880;12.630;2023-10-13T03:30:36;15.35;88.84
74968;SHT30;63523;51.880;12.630;2023-10-13T03:33:08;15.32;88.89
74968;SHT30;63523;51.880;12.630;2023-10-13T03:35:39;15.32;89.01
74968;SHT30;63523;51.880;12.630;2023-10-13T03:38:06;15.34;89.01
74968;SHT30;63523;51.880;12.630;2023-10-13T03:40:42;15.34;89.07
74968;SHT30;63523;51.880;12.630;2023-10-13T03:43:07;15.35;89.01
74968;SHT30;63523;51.880;12.630;2023-10-13T03:45:33;15.36;88.93
74968;SHT30;63523;51.880;12.630;2023-10-13T03:48:17;15.35;88.98
74968;SHT30;63523;51.880;12.630;2023-10-13T03:51:02;15.34;89.03
74968;SHT30;63523;51.880;12.630;2023-10-13T03:53:37;15.32;89.02
74968;SHT30;63523;51.880;12.630;2023-10-13T03:56:17;15.31;89.07
74968;SHT30;63523;51.880;12.630;2023-10-13T03:58:52;15.29;89.01
74968;SHT30;63523;51.880;12.630;2023-10-13T04:01:22;15.27;89.03
74968;SHT30;63523;51.880;12.630;2023-10-13T04:04:00;15.25;89.08
74968;SHT30;63523;51.880;12.630;2023-10-13T04:06:30;15.24;89.06
74968;SHT30;63523;51.880;12.630;2023-10-13T04:09:21;15.21;89.00
74968;SHT30;63523;51.880;12.630;2023-10-13T04:11:56;15.21;89.07
74968;SHT30;63523;51.880;12.630;2023-10-13T04:14:36;15.27;89.11
74968;SHT30;63523;51.880;12.630;2023-10-13T04:17:20;15.24;89.06
74968;SHT30;63523;51.880;12.630;2023-10-13T04:19:50;15.22;89.08
74968;SHT30;63523;51.880;12.630;2023-10-13T04:25:27;15.18;88.82
74968;SHT30;63523;51.880;12.630;2023-10-13T04:30:47;15.10;88.85
74968;SHT30;63523;51.880;12.630;2023-10-13T04:33:13;15.07;88.83
74968;SHT30;63523;51.880;12.630;2023-10-13T04:36:07;15.05;89.11
74968;SHT30;63523;51.880;12.630;2023-10-13T04:38:40;15.04;89.08
74968;SHT30;63523;51.880;12.630;2023-10-13T04:44:23;15.01;89.36
74968;SHT30;63523;51.880;12.630;2023-10-13T04:46:55;15.10;89.32
74968;SHT30;63523;51.880;12.630;2023-10-13T04:49:28;15.14;88.99
74968;SHT30;63523;51.880;12.630;2023-10-13T04:52:01;15.10;88.69
74968;SHT30;63523;51.880;12.630;2023-10-13T04:54:45;15.14;88.68
74968;SHT30;63523;51.880;12.630;2023-10-13T04:57:19;15.12;88.59
74968;SHT30;63523;51.880;12.630;2023-10-13T05:00:12;15.10;88.85
74968;SHT30;63523;51.880;12.630;2023-10-13T05:02:39;15.08;88.70
74968;SHT30;63523;51.880;12.630;2023-10-13T05:05:13;15.10;88.87
74968;SHT30;63523;51.880;12.630;2023-10-13T05:07:39;15.10;88.39
74968;SHT30;63523;51.880;12.630;2023-10-13T05:10:23;15.01;88.30
74968;SHT30;63523;51.880;12.630;2023-10-13T05:13:07;15.00;88.80
74968;SHT30;63523;51.880;12.630;2023-10-13T05:15:51;15.02;88.79
74968;SHT30;63523;51.880;12.630;2023-10-13T05:18:35;15.01;88.47
74968;SHT30;63523;51.880;12.630;2023-10-13T05:21:20;14.95;88.11
74968;SHT30;63523;51.880;12.630;2023-10-13T05:24:05;14.94;88.14
74968;SHT30;63523;51.880;12.630;2023-10-13T05:26:49;14.87;88.31
74968;SHT30;63523;51.880;12.630;2023-10-13T05:29:33;14.84;88.31
74968;SHT30;63523;51.880;12.630;2023-10-13T05:32:18;14.83;88.33
74968;SHT30;63523;51.880;12.630;2023-10-13T05:35:02;14.85;88.70
74968;SHT30;63523;51.880;12.630;2023-10-13T05:37:46;14.94;87.04
74968;SHT30;63523;51.880;12.630;2023-10-13T05:40:30;14.83;86.63
74968;SHT30;63523;51.880;12.630;2023-10-13T05:43:14;14.81;86.85
74968;SHT30;63523;51.880;12.630;2023-10-13T05:46:03;14.81;87.34
74968;SHT30;63523;51.880;12.630;2023-10-13T05:48:47;14.84;87.92
74968;SHT30;63523;51.880;12.630;2023-10-13T05:51:28;14.91;87.87
74968;SHT30;63523;51.880;12.630;2023-10-13T05:54:02;14.98;88.49
74968;SHT30;63523;51.880;12.630;2023-10-13T05:56:39;15.15;88.37
74968;SHT30;63523;51.880;12.630;2023-10-13T05:59:24;15.20;88.71
74968;SHT30;63523;51.880;12.630;2023-10-13T06:02:08;15.27;88.96
74968;SHT30;63523;51.880;12.630;2023-10-13T06:04:52;15.48;88.87
74968;SHT30;63523;51.880;12.630;2023-10-13T06:07:36;15.57;88.81
74968;SHT30;63523;51.880;12.630;2023-10-13T06:10:20;15.60;88.66
74968;SHT30;63523;51.880;12.630;2023-10-13T06:13:04;15.63;88.36
74968;SHT30;63523;51.880;12.630;2023-10-13T06:15:47;15.62;88.56
74968;SHT30;63523;51.880;12.630;2023-10-13T06:18:31;15.70;88.13
74968;SHT30;63523;51.880;12.630;2023-10-13T06:21:15;15.73;88.31
74968;SHT30;63523;51.880;12.630;2023-10-13T06:23:59;15.83;88.57
74968;SHT30;63523;51.880;12.630;2023-10-13T06:26:43;15.91;88.56
74968;SHT30;63523;51.880;12.630;2023-10-13T06:29:27;16.00;88.49
74968;SHT30;63523;51.880;12.630;2023-10-13T06:31:52;16.08;88.52
74968;SHT30;63523;51.880;12.630;2023-10-13T06:34:17;16.21;87.95
74968;SHT30;63523;51.880;12.630;2023-10-13T06:36:46;16.24;87.99
74968;SHT30;63523;51.880;12.630;2023-10-13T06:39:12;16.29;87.80
74968;SHT30;63523;51.880;12.630;2023-10-13T06:41:56;16.33;87.70
74968;SHT30;63523;51.880;12.630;2023-10-13T06:44:22;16.35;87.69
74968;SHT30;63523;51.880;12.630;2023-10-13T06:46:47;16.41;87.78
74968;SHT30;63523;51.880;12.630;2023-10-13T06:49:15;16.51;87.84
74968;SHT30;63523;51.880;12.630;2023-10-13T06:51:43;16.56;87.42
74968;SHT30;63523;51.880;12.630;2023-10-13T06:54:11;16.59;87.20
74968;SHT30;63523;51.880;12.630;2023-10-13T06:56:45;16.65;86.90
74968;SHT30;63523;51.880;12.630;2023-10-13T06:59:11;16.70;86.78
74968;SHT30;63523;51.880;12.630;2023-10-13T07:01:39;16.74;86.75
74968;SHT30;63523;51.880;12.630;2023-10-13T07:04:08;16.79;86.93
74968;SHT30;63523;51.880;12.630;2023-10-13T07:06:42;16.84;87.13
74968;SHT30;63523;51.880;12.630;2023-10-13T07:09:13;16.88;86.65
74968;SHT30;63523;51.880;12.630;2023-10-13T07:11:59;16.91;86.49
74968;SHT30;63523;51.880;12.630;2023-10-13T07:14:26;16.95;86.57
74968;SHT30;63523;51.880;12.630;2023-10-13T07:17:04;17.00;86.77
74968;SHT30;63523;51.880;12.630;2023-10-13T07:19:30;17.06;86.53
74968;SHT30;63523;51.880;12.630;2023-10-13T07:22:00;17.10;86.89
74968;SHT30;63523;51.880;12.630;2023-10-13T07:24:44;17.15;86.63
74968;SHT30;63523;51.880;12.630;2023-10-13T07:27:09;17.17;86.23
74968;SHT30;63523;51.880;12.630;2023-10-13T07:29:35;17.28;86.16
74968;SHT30;63523;51.880;12.630;2023-10-13T07:32:01;17.39;85.78
74968;SHT30;63523;51.880;12.630;2023-10-13T07:34:38;17.50;86.09
74968;SHT30;63523;51.880;12.630;2023-10-13T07:37:04;17.69;85.99
74968;SHT30;63523;51.880;12.630;2023-10-13T07:39:33;17.76;85.00
74968;SHT30;63523;51.880;12.630;2023-10-13T07:42:04;17.84;84.59
74968;SHT30;63523;51.880;12.630;2023-10-13T07:44:31;17.91;84.83
74968;SHT30;63523;51.880;12.630;2023-10-13T07:47:02;18.00;84.25
74968;SHT30;63523;51.880;12.630;2023-10-13T07:49:30;17.96;83.95
74968;SHT30;63523;51.880;12.630;2023-10-13T07:52:04;17.90;83.32
74968;SHT30;63523;51.880;12.630;2023-10-13T07:54:46;17.86;83.75
74968;SHT30;63523;51.880;12.630;2023-10-13T07:57:15;17.86;83.76
74968;SHT30;63523;51.880;12.630;2023-10-13T07:59:41;17.87;83.83
74968;SHT30;63523;51.880;12.630;2023-10-13T08:02:14;17.82;83.61
74968;SHT30;63523;51.880;12.630;2023-10-13T08:04:58;17.86;84.10
74968;SHT30;63523;51.880;12.630;2023-10-13T08:07:23;17.87;84.00
74968;SHT30;63523;51.880;12.630;2023-10-13T08:09:53;17.89;84.13
74968;SHT30;63523;51.880;12.630;2023-10-13T08:12:22;18.01;84.15
74968;SHT30;63523;51.880;12.630;2023-10-13T08:14:48;17.97;83.05
74968;SHT30;63523;51.880;12.630;2023-10-13T08:17:13;18.01;83.23
74968;SHT30;63523;51.880;12.630;2023-10-13T08:19:39;17.96;83.31
74968;SHT30;63523;51.880;12.630;2023-10-13T08:22:05;17.94;83.70
74968;SHT30;63523;51.880;12.630;2023-10-13T08:24:40;17.93;83.37
74968;SHT30;63523;51.880;12.630;2023-10-13T08:27:07;18.02;83.59
74968;SHT30;63523;51.880;12.630;2023-10-13T08:29:51;18.15;83.33
74968;SHT30;63523;51.880;12.630;2023-10-13T08:32:27;18.22;82.48
74968;SHT30;63523;51.880;12.630;2023-10-13T08:35:00;18.28;82.49
74968;SHT30;63523;51.880;12.630;2023-10-13T08:37:35;18.36;83.18
74968;SHT30;63523;51.880;12.630;2023-10-13T08:40:24;18.35;82.84
74968;SHT30;63523;51.880;12.630;2023-10-13T08:42:51;18.32;82.42
74968;SHT30;63523;51.880;12.630;2023-10-13T08:45:29;18.32;82.85
74968;SHT30;63523;51.880;12.630;2023-10-13T08:47:56;18.44;82.74
74968;SHT30;63523;51.880;12.630;2023-10-13T08:50:44;18.51;81.79
74968;SHT30;63523;51.880;12.630;2023-10-13T08:53:20;18.49;81.24
74968;SHT30;63523;51.880;12.630;2023-10-13T08:56:05;18.46;82.11
74968;SHT30;63523;51.880;12.630;2023-10-13T09:01:24;18.49;81.77
74968;SHT30;63523;51.880;12.630;2023-10-13T09:04:10;18.35;82.31
74968;SHT30;63523;51.880;12.630;2023-10-13T09:09:28;18.41;82.14
74968;SHT30;63523;51.880;12.630;2023-10-13T09:12:12;18.42;82.64
74968;SHT30;63523;51.880;12.630;2023-10-13T09:14:39;18.52;82.00
74968;SHT30;63523;51.880;12.630;2023-10-13T09:17:13;18.53;82.10
74968;SHT30;63523;51.880;12.630;2023-10-13T09:22:26;18.62;81.59
74968;SHT30;63523;51.880;12.630;2023-10-13T09:25:04;18.67;81.86
74968;SHT30;63523;51.880;12.630;2023-10-13T09:27:31;18.74;82.54
74968;SHT30;63523;51.880;12.630;2023-10-13T09:30:04;18.93;81.79
74968;SHT30;63523;51.880;12.630;2023-10-13T09:32:43;18.96;81.55
74968;SHT30;63523;51.880;12.630;2023-10-13T09:35:16;18.93;82.54
74968;SHT30;63523;51.880;12.630;2023-10-13T09:37:43;18.90;82.78
74968;SHT30;63523;51.880;12.630;2023-10-13T09:40:16;18.83;82.78
74968;SHT30;63523;51.880;12.630;2023-10-13T09:42:52;18.72;83.67
74968;SHT30;63523;51.880;12.630;2023-10-13T09:45:17;18.57;84.10
74968;SHT30;63523;51.880;12.630;2023-10-13T09:47:46;18.45;84.72
74968;SHT30;63523;51.880;12.630;2023-10-13T09:50:13;18.36;85.29
74968;SHT30;63523;51.880;12.630;2023-10-13T09:52:49;18.29;85.90
74968;SHT30;63523;51.880;12.630;2023-10-13T09:55:26;18.34;86.10
74968;SHT30;63523;51.880;12.630;2023-10-13T09:58:03;18.32;86.46
74968;SHT30;63523;51.880;12.630;2023-10-13T10:00:37;18.39;86.44
74968;SHT30;63523;51.880;12.630;2023-10-13T10:03:24;18.29;86.16
74968;SHT30;63523;51.880;12.630;2023-10-13T10:06:04;18.21;86.86
74968;SHT30;63523;51.880;12.630;2023-10-13T10:08:32;18.17;86.69
74968;SHT30;63523;51.880;12.630;2023-10-13T10:16:11;18.12;87.12
74968;SHT30;63523;51.880;12.630;2023-10-13T10:18:45;18.12;86.94
74968;SHT30;63523;51.880;12.630;2023-10-13T10:21:10;18.21;87.03
74968;SHT30;63523;51.880;12.630;2023-10-13T10:23:37;18.21;86.85
74968;SHT30;63523;51.880;12.630;2023-10-13T10:26:12;18.25;87.11
74968;SHT30;63523;51.880;12.630;2023-10-13T10:28:42;18.27;87.29
74968;SHT30;63523;51.880;12.630;2023-10-13T10:31:11;18.24;86.70
74968;SHT30;63523;51.880;12.630;2023-10-13T10:33:42;18.25;86.87
74968;SHT30;63523;51.880;12.630;2023-10-13T10:36:08;18.28;86.58
74968;SHT30;63523;51.880;12.630;2023-10-13T10:38:52;18.35;87.00
74968;SHT30;63523;51.880;12.630;2023-10-13T10:41:25;18.39;86.35
74968;SHT30;63523;51.880;12.630;2023-10-13T10:43:54;18.38;86.21
74968;SHT30;63523;51.880;12.630;2023-10-13T10:46:29;18.45;85.86
74968;SHT30;63523;51.880;12.630;2023-10-13T10:49:04;18.49;86.13
74968;SHT30;63523;51.880;12.630;2023-10-13T10:51:31;18.52;85.77
74968;SHT30;63523;51.880;12.630;2023-10-13T10:53:59;18.59;85.78
74968;SHT30;63523;51.880;12.630;2023-10-13T10:56:37;18.74;85.92
74968;SHT30;63523;51.880;12.630;2023-10-13T10:59:04;18.90;85.48
74968;SHT30;63523;51.880;12.630;2023-10-13T11:01:30;19.01;85.03
74968;SHT30;63523;51.880;12.630;2023-10-13T11:04:12;19.15;84.65
74968;SHT30;63523;51.880;12.630;2023-10-13T11:06:52;19.27;84.95
74968;SHT30;63523;51.880;12.630;2023-10-13T11:09:27;19.38;83.77
74968;SHT30;63523;51.880;12.630;2023-10-13T11:12:17;19.42;83.51
74968;SHT30;63523;51.880;12.630;2023-10-13T11:15:05;19.49;83.26
74968;SHT30;63523;51.880;12.630;2023-10-13T11:17:39;19.56;83.37
74968;SHT30;63523;51.880;12.630;2023-10-13T11:20:09;19.73;83.57
74968;SHT30;63523;51.880;12.630;2023-10-13T11:22:49;19.87;82.32
74968;SHT30;63523;51.880;12.630;2023-10-13T11:25:24;19.93;82.51
74968;SHT30;63523;51.880;12.630;2023-10-13T11:27:55;20.03;82.08
74968;SHT30;63523;51.880;12.630;2023-10-13T11:30:22;20.24;82.75
74968;SHT30;63523;51.880;12.630;2023-10-13T11:33:10;20.42;81.77
74968;SHT30;63523;51.880;12.630;2023-10-13T11:35:39;20.66;81.27
74968;SHT30;63523;51.880;12.630;2023-10-13T11:38:17;20.79;80.71
74968;SHT30;63523;51.880;12.630;2023-10-13T11:43:37;20.79;78.40
74968;SHT30;63523;51.880;12.630;2023-10-13T11:46:29;20.76;79.50
74968;SHT30;63523;51.880;12.630;2023-10-13T11:49:00;20.76;78.97
74968;SHT30;63523;51.880;12.630;2023-10-13T11:51:49;20.79;78.54
74968;SHT30;63523;51.880;12.630;2023-10-13T11:54:19;20.79;77.38
74968;SHT30;63523;51.880;12.630;2023-10-13T11:56:45;20.73;78.63
74968;SHT30;63523;51.880;12.630;2023-10-13T11:59:11;20.73;78.65
74968;SHT30;63523;51.880;12.630;2023-10-13T12:01:49;20.76;77.62
74968;SHT30;63523;51.880;12.630;2023-10-13T12:04:33;20.73;77.58
74968;SHT30;63523;51.880;12.630;2023-10-13T12:07:26;20.80;78.23
74968;SHT30;63523;51.880;12.630;2023-10-13T12:10:10;20.77;78.07
74968;SHT30;63523;51.880;12.630;2023-10-13T12:12:58;20.77;78.32
74968;SHT30;63523;51.880;12.630;2023-10-13T12:15:31;20.87;77.39
74968;SHT30;63523;51.880;12.630;2023-10-13T12:18:03;21.00;76.79
74968;SHT30;63523;51.880;12.630;2023-10-13T12:20:28;21.17;76.15
74968;SHT30;63523;51.880;12.630;2023-10-13T12:23:01;21.21;76.70
74968;SHT30;63523;51.880;12.630;2023-10-13T12:25:40;21.24;76.36
74968;SHT30;63523;51.880;12.630;2023-10-13T12:28:24;21.28;76.07
74968;SHT30;63523;51.880;12.630;2023-10-13T12:30:53;21.32;75.66
74968;SHT30;63523;51.880;12.630;2023-10-13T12:33:22;21.32;75.79
74968;SHT30;63523;51.880;12.630;2023-10-13T12:35:55;21.42;77.33
74968;SHT30;63523;51.880;12.630;2023-10-13T12:38:39;21.43;75.76
74968;SHT30;63523;51.880;12.630;2023-10-13T12:41:18;21.52;76.39
74968;SHT30;63523;51.880;12.630;2023-10-13T12:44:03;21.56;74.54
74968;SHT30;63523;51.880;12.630;2023-10-13T12:46:47;21.67;74.87
74968;SHT30;63523;51.880;12.630;2023-10-13T12:49:35;21.69;75.93
74968;SHT30;63523;51.880;12.630;2023-10-13T12:52:07;21.65;74.15
74968;SHT30;63523;51.880;12.630;2023-10-13T12:54:42;21.69;73.78
74968;SHT30;63523;51.880;12.630;2023-10-13T12:57:12;21.66;73.10
74968;SHT30;63523;51.880;12.630;2023-10-13T12:59:37;21.59;73.47
74968;SHT30;63523;51.880;12.630;2023-10-13T13:02:04;21.56;73.73
74968;SHT30;63523;51.880;12.630;2023-10-13T13:04:32;21.55;74.33
74968;SHT30;63523;51.880;12.630;2023-10-13T13:07:02;21.48;73.21
74968;SHT30;63523;51.880;12.630;2023-10-13T13:09:31;21.46;73.74
74968;SHT30;63523;51.880;12.630;2023-10-13T13:11:56;21.45;73.45
74968;SHT30;63523;51.880;12.630;2023-10-13T13:14:25;21.38;73.41
74968;SHT30;63523;51.880;12.630;2023-10-13T13:17:00;21.35;74.04
74968;SHT30;63523;51.880;12.630;2023-10-13T13:19:35;21.32;73.12
74968;SHT30;63523;51.880;12.630;2023-10-13T13:22:07;21.27;73.86
74968;SHT30;63523;51.880;12.630;2023-10-13T13:24:42;21.27;74.25
74968;SHT30;63523;51.880;12.630;2023-10-13T13:27:12;21.28;74.53
74968;SHT30;63523;51.880;12.630;2023-10-13T13:29:44;21.31;74.00
74968;SHT30;63523;51.880;12.630;2023-10-13T13:32:09;21.37;73.08
74968;SHT30;63523;51.880;12.630;2023-10-13T13:34:50;21.42;73.28
74968;SHT30;63523;51.880;12.630;2023-10-13T13:37:32;21.46;73.68
74968;SHT30;63523;51.880;12.630;2023-10-13T13:39:58;21.48;74.47
74968;SHT30;63523;51.880;12.630;2023-10-13T13:42:38;21.52;72.99
74968;SHT30;63523;51.880;12.630;2023-10-13T13:45:11;21.49;72.96
74968;SHT30;63523;51.880;12.630;2023-10-13T13:47:36;21.43;73.57
74968;SHT30;63523;51.880;12.630;2023-10-13T13:50:02;21.53;72.43
74968;SHT30;63523;51.880;12.630;2023-10-13T13:52:31;21.56;72.92
74968;SHT30;63523;51.880;12.630;2023-10-13T13:55:10;21.53;71.58
74968;SHT30;63523;51.880;12.630;2023-10-13T13:57:36;21.58;70.68
74968;SHT30;63523;51.880;12.630;2023-10-13T14:00:01;21.52;70.99
74968;SHT30;63523;51.880;12.630;2023-10-13T14:02:26;21.52;69.94
74968;SHT30;63523;51.880;12.630;2023-10-13T14:04:53;21.53;71.14
74968;SHT30;63523;51.880;12.630;2023-10-13T14:07:19;21.46;70.66
74968;SHT30;63523;51.880;12.630;2023-10-13T14:09:46;21.43;71.27
74968;SHT30;63523;51.880;12.630;2023-10-13T14:12:17;21.41;71.13
74968;SHT30;63523;51.880;12.630;2023-10-13T14:14:56;21.34;71.44
74968;SHT30;63523;51.880;12.630;2023-10-13T14:17:22;21.31;72.05
74968;SHT30;63523;51.880;12.630;2023-10-13T14:19:55;21.34;71.15
74968;SHT30;63523;51.880;12.630;2023-10-13T14:22:20;21.31;71.14
74968;SHT30;63523;51.880;12.630;2023-10-13T14:24:50;21.30;71.33
74968;SHT30;63523;51.880;12.630;2023-10-13T14:27:20;21.31;71.79
74968;SHT30;63523;51.880;12.630;2023-10-13T14:29:49;21.27;70.98
74968;SHT30;63523;51.880;12.630;2023-10-13T14:32:18;21.25;71.07
74968;SHT30;63523;51.880;12.630;2023-10-13T14:34:46;21.30;70.71
74968;SHT30;63523;51.880;12.630;2023-10-13T14:37:16;21.28;72.54
74968;SHT30;63523;51.880;12.630;2023-10-13T14:39:52;21.28;72.18
74968;SHT30;63523;51.880;12.630;2023-10-13T14:42:17;21.34;71.44
74968;SHT30;63523;51.880;12.630;2023-10-13T14:44:47;21.37;71.31
74968;SHT30;63523;51.880;12.630;2023-10-13T14:47:29;21.42;71.48
74968;SHT30;63523;51.880;12.630;2023-10-13T14:49:56;21.41;70.88
74968;SHT30;63523;51.880;12.630;2023-10-13T14:52:25;21.52;69.99
74968;SHT30;63523;51.880;12.630;2023-10-13T14:54:50;21.58;69.92
74968;SHT30;63523;51.880;12.630;2023-10-13T14:57:20;21.56;69.55
74968;SHT30;63523;51.880;12.630;2023-10-13T14:59:50;21.53;69.14
74968;SHT30;63523;51.880;12.630;2023-10-13T15:02:15;21.55;69.90
74968;SHT30;63523;51.880;12.630;2023-10-13T15:04:41;21.65;69.05
74968;SHT30;63523;51.880;12.630;2023-10-13T15:07:06;21.58;69.23
74968;SHT30;63523;51.880;12.630;2023-10-13T15:09:31;21.56;68.65
74968;SHT30;63523;51.880;12.630;2023-10-13T15:11:57;21.56;68.54
74968;SHT30;63523;51.880;12.630;2023-10-13T15:14:22;21.53;69.32
74968;SHT30;63523;51.880;12.630;2023-10-13T15:16:49;21.42;70.35
74968;SHT30;63523;51.880;12.630;2023-10-13T15:19:14;21.34;70.88
74968;SHT30;63523;51.880;12.630;2023-10-13T15:21:41;21.28;68.58
74968;SHT30;63523;51.880;12.630;2023-10-13T15:24:07;21.25;68.21
74968;SHT30;63523;51.880;12.630;2023-10-13T15:26:40;21.27;67.28
74968;SHT30;63523;51.880;12.630;2023-10-13T15:29:07;21.30;67.44
74968;SHT30;63523;51.880;12.630;2023-10-13T15:31:38;21.28;67.93
74968;SHT30;63523;51.880;12.630;2023-10-13T15:34:11;21.24;67.29
74968;SHT30;63523;51.880;12.630;2023-10-13T15:36:41;21.23;67.09
74968;SHT30;63523;51.880;12.630;2023-10-13T15:39:08;21.24;67.98
74968;SHT30;63523;51.880;12.630;2023-10-13T15:41:36;21.23;67.77
74968;SHT30;63523;51.880;12.630;2023-10-13T15:44:04;21.27;66.79
74968;SHT30;63523;51.880;12.630;2023-10-13T15:46:35;21.20;67.76
74968;SHT30;63523;51.880;12.630;2023-10-13T15:49:00;21.12;67.30
74968;SHT30;63523;51.880;12.630;2023-10-13T15:51:27;21.10;67.56
74968;SHT30;63523;51.880;12.630;2023-10-13T15:53:53;21.10;67.24
74968;SHT30;63523;51.880;12.630;2023-10-13T15:56:18;21.07;67.34
74968;SHT30;63523;51.880;12.630;2023-10-13T15:58:45;21.08;68.04
74968;SHT30;63523;51.880;12.630;2023-10-13T16:01:11;21.04;67.63
74968;SHT30;63523;51.880;12.630;2023-10-13T16:03:43;21.01;67.70
74968;SHT30;63523;51.880;12.630;2023-10-13T16:06:12;21.00;67.22
74968;SHT30;63523;51.880;12.630;2023-10-13T16:08:41;21.00;67.13
74968;SHT30;63523;51.880;12.630;2023-10-13T16:11:11;21.01;65.78
74968;SHT30;63523;51.880;12.630;2023-10-13T16:13:44;21.07;66.02
74968;SHT30;63523;51.880;12.630;2023-10-13T16:16:22;21.10;64.43